sensor_id;sensor_type;location;lat;lon;timestamp;pressure;altitude;pressure_sealevel;temperature;humidity
22582;BME280;47125;48.542;9.052;2022-10-04T00:04:59;96756.53;;;9.76;83.43
22582;BME280;47125;48.542;9.052;2022-10-04T00:15:06;96749.97;;;9.79;83.74
22582;BME280;47125;48.542;9.052;2022-10-04T00:25:19;96733.03;;;9.60;83.33
22582;BME280;47125;48.542;9.052;2022-10-04T00:45:47;96717.75;;;9.43;84.09
22582;BME280;47125;48.542;9.052;2022-10-04T00:55:53;96721.00;;;9.45;83.16
22582;BME280;47125;48.542;9.052;2022-10-04T01:05:59;96705.88;;;9.32;82.65
22582;BME280;47125;48.542;9.052;2022-10-04T01:16:03;96699.06;;;8.92;82.25
22582;BME280;47125;48.542;9.052;2022-10-04T01:36:34;96705.00;;;8.80;84.26
22582;BME280;47125;48.542;9.052;2022-10-04T01:46:37;96682.88;;;8.86;83.83
22582;BME280;47125;48.542;9.052;2022-10-04T01:56:42;96664.88;;;8.82;83.82
22582;BME280;47125;48.542;9.052;2022-10-04T02:06:47;96667.16;;;8.72;83.88
22582;BME280;47125;48.542;9.052;2022-10-04T02:16:55;96666.78;;;8.49;82.69
22582;BME280;47125;48.542;9.052;2022-10-04T02:26:58;96655.72;;;8.58;82.16
22582;BME280;47125;48.542;9.052;2022-10-04T02:37:02;96648.41;;;8.34;82.52
22582;BME280;47125;48.542;9.052;2022-10-04T02:47:06;96656.34;;;8.21;81.79
22582;BME280;47125;48.542;9.052;2022-10-04T02:57:14;96632.63;;;8.32;80.63
22582;BME280;47125;48.542;9.052;2022-10-04T03:07:17;96637.94;;;8.32;80.98
22582;BME280;47125;48.542;9.052;2022-10-04T03:17:21;96634.25;;;8.07;82.02
22582;BME280;47125;48.542;9.052;2022-10-04T03:27:24;96626.88;;;8.16;81.11
22582;BME280;47125;48.542;9.052;2022-10-04T03:37:32;96618.50;;;7.99;81.94
22582;BME280;47125;48.542;9.052;2022-10-04T03:47:36;96639.16;;;7.91;83.53
22582;BME280;47125;48.542;9.052;2022-10-04T03:57:41;96626.69;;;7.58;85.35
22582;BME280;47125;48.542;9.052;2022-10-04T04:07:44;96625.63;;;7.46;84.39
22582;BME280;47125;48.542;9.052;2022-10-04T04:17:49;96623.91;;;7.06;86.45
22582;BME280;47125;48.542;9.052;2022-10-04T04:27:55;96619.25;;;7.21;87.24
22582;BME280;47125;48.542;9.052;2022-10-04T04:38:04;96620.53;;;7.38;86.61
22582;BME280;47125;48.542;9.052;2022-10-04T04:48:06;96616.03;;;7.52;85.60
22582;BME280;47125;48.542;9.052;2022-10-04T04:58:12;96621.16;;;7.53;83.90
22582;BME280;47125;48.542;9.052;2022-10-04T05:08:21;96622.88;;;7.07;87.01
22582;BME280;47125;48.542;9.052;2022-10-04T05:18:28;96621.47;;;7.11;87.91
22582;BME280;47125;48.542;9.052;2022-10-04T05:28:31;96636.81;;;7.22;85.17
22582;BME280;47125;48.542;9.052;2022-10-04T05:38:37;96632.97;;;7.31;85.30
22582;BME280;47125;48.542;9.052;2022-10-04T05:48:43;96644.00;;;7.35;85.86
22582;BME280;47125;48.542;9.052;2022-10-04T05:58:51;96634.63;;;7.52;85.50
22582;BME280;47125;48.542;9.052;2022-10-04T06:09:00;96639.16;;;7.71;85.08
22582;BME280;47125;48.542;9.052;2022-10-04T06:19:12;96653.28;;;7.71;86.58
22582;BME280;47125;48.542;9.052;2022-10-04T06:29:21;96657.94;;;7.43;87.04
22582;BME280;47125;48.542;9.052;2022-10-04T06:39:39;96655.81;;;7.19;88.93
22582;BME280;47125;48.542;9.052;2022-10-04T06:49:45;96661.47;;;7.90;85.54
22582;BME280;47125;48.542;9.052;2022-10-04T06:59:59;96664.53;;;7.73;89.14
22582;BME280;47125;48.542;9.052;2022-10-04T07:10:21;96655.94;;;7.71;89.02
22582;BME280;47125;48.542;9.052;2022-10-04T07:20:27;96664.72;;;7.65;90.46
22582;BME280;47125;48.542;9.052;2022-10-04T07:30:32;96659.22;;;8.13;88.99
22582;BME280;47125;48.542;9.052;2022-10-04T07:40:39;96664.72;;;8.44;88.68
22582;BME280;47125;48.542;9.052;2022-10-04T07:50:43;96676.78;;;8.73;85.50
22582;BME280;47125;48.542;9.052;2022-10-04T08:00:51;96688.19;;;8.86;86.17
22582;BME280;47125;48.542;9.052;2022-10-04T08:11:00;96679.94;;;9.08;87.46
22582;BME280;47125;48.542;9.052;2022-10-04T08:21:12;96690.44;;;9.40;88.58
22582;BME280;47125;48.542;9.052;2022-10-04T08:31:20;96686.38;;;9.38;92.81
22582;BME280;47125;48.542;9.052;2022-10-04T08:41:34;96690.44;;;9.40;93.52
22582;BME280;47125;48.542;9.052;2022-10-04T08:51:54;96687.75;;;9.47;94.39
22582;BME280;47125;48.542;9.052;2022-10-04T09:02:13;96690.34;;;9.67;92.87
22582;BME280;47125;48.542;9.052;2022-10-04T09:12:35;96690.84;;;9.82;93.32
22582;BME280;47125;48.542;9.052;2022-10-04T09:22:46;96685.91;;;10.41;89.11
22582;BME280;47125;48.542;9.052;2022-10-04T09:32:53;96690.13;;;10.92;87.03
22582;BME280;47125;48.542;9.052;2022-10-04T09:43:24;96693.59;;;11.47;84.98
22582;BME280;47125;48.542;9.052;2022-10-04T09:53:34;96689.00;;;11.84;84.81
22582;BME280;47125;48.542;9.052;2022-10-04T10:14:20;96667.59;;;12.60;82.01
22582;BME280;47125;48.542;9.052;2022-10-04T10:24:35;96671.88;;;13.07;81.33
22582;BME280;47125;48.542;9.052;2022-10-04T10:34:47;96672.16;;;13.74;79.84
22582;BME280;47125;48.542;9.052;2022-10-04T10:45:07;96666.03;;;14.35;76.44
22582;BME280;47125;48.542;9.052;2022-10-04T10:55:22;96664.25;;;14.79;75.13
22582;BME280;47125;48.542;9.052;2022-10-04T11:16:04;96647.13;;;16.25;69.82
22582;BME280;47125;48.542;9.052;2022-10-04T11:26:22;96654.06;;;17.27;68.42
22582;BME280;47125;48.542;9.052;2022-10-04T11:36:34;96639.22;;;17.34;65.78
22582;BME280;47125;48.542;9.052;2022-10-04T11:46:41;96627.78;;;17.79;64.41
22582;BME280;47125;48.542;9.052;2022-10-04T11:56:58;96621.34;;;18.36;63.79
22582;BME280;47125;48.542;9.052;2022-10-04T12:07:18;96610.44;;;19.16;59.16
22582;BME280;47125;48.542;9.052;2022-10-04T12:17:37;96604.63;;;19.97;56.10
22582;BME280;47125;48.542;9.052;2022-10-04T12:48:34;96583.66;;;21.47;54.25
22582;BME280;47125;48.542;9.052;2022-10-04T12:58:48;96571.25;;;21.59;51.42
22582;BME280;47125;48.542;9.052;2022-10-04T13:08:59;96567.00;;;22.28;48.25
22582;BME280;47125;48.542;9.052;2022-10-04T13:19:05;96566.47;;;22.58;46.69
22582;BME280;47125;48.542;9.052;2022-10-04T13:29:19;96566.56;;;22.21;46.81
22582;BME280;47125;48.542;9.052;2022-10-04T13:39:26;96581.97;;;22.44;47.92
22582;BME280;47125;48.542;9.052;2022-10-04T13:49:40;96575.31;;;21.80;52.32
22582;BME280;47125;48.542;9.052;2022-10-04T13:59:46;96571.19;;;21.22;52.37
22582;BME280;47125;48.542;9.052;2022-10-04T14:09:55;96571.75;;;20.71;52.54
22582;BME280;47125;48.542;9.052;2022-10-04T14:30:26;96562.75;;;19.74;56.53
22582;BME280;47125;48.542;9.052;2022-10-04T14:40:40;96563.78;;;19.40;56.14
22582;BME280;47125;48.542;9.052;2022-10-04T14:50:52;96551.91;;;19.20;55.99
22582;BME280;47125;48.542;9.052;2022-10-04T15:01:02;96547.63;;;19.09;59.39
22582;BME280;47125;48.542;9.052;2022-10-04T15:11:09;96545.63;;;18.71;60.27
22582;BME280;47125;48.542;9.052;2022-10-04T15:21:19;96531.53;;;18.74;63.36
22582;BME280;47125;48.542;9.052;2022-10-04T15:31:35;96535.34;;;18.58;64.10
22582;BME280;47125;48.542;9.052;2022-10-04T15:41:40;96529.94;;;18.43;65.18
22582;BME280;47125;48.542;9.052;2022-10-04T16:02:15;96518.09;;;18.03;69.01
22582;BME280;47125;48.542;9.052;2022-10-04T16:12:23;96521.06;;;17.72;70.26
22582;BME280;47125;48.542;9.052;2022-10-04T16:22:31;96520.25;;;17.66;70.14
22582;BME280;47125;48.542;9.052;2022-10-04T16:32:36;96515.31;;;17.33;71.97
22582;BME280;47125;48.542;9.052;2022-10-04T16:42:48;96520.63;;;17.13;71.90
22582;BME280;47125;48.542;9.052;2022-10-04T16:52:52;96519.16;;;16.80;73.62
22582;BME280;47125;48.542;9.052;2022-10-04T17:03:11;96526.72;;;16.73;73.26
22582;BME280;47125;48.542;9.052;2022-10-04T17:13:18;96539.94;;;16.37;75.82
22582;BME280;47125;48.542;9.052;2022-10-04T17:23:33;96556.28;;;16.21;76.46
22582;BME280;47125;48.542;9.052;2022-10-04T17:33:46;96548.81;;;15.96;77.12
22582;BME280;47125;48.542;9.052;2022-10-04T17:44:06;96534.78;;;15.94;75.78
22582;BME280;47125;48.542;9.052;2022-10-04T17:54:16;96519.88;;;15.81;76.94
22582;BME280;47125;48.542;9.052;2022-10-04T18:04:44;96502.53;;;15.67;77.73
22582;BME280;47125;48.542;9.052;2022-10-04T18:14:56;96506.28;;;15.66;76.75
22582;BME280;47125;48.542;9.052;2022-10-04T18:25:13;96521.75;;;15.49;76.93
22582;BME280;47125;48.542;9.052;2022-10-04T18:35:21;96524.06;;;15.40;75.59
22582;BME280;47125;48.542;9.052;2022-10-04T18:45:27;96525.00;;;15.29;75.60
22582;BME280;47125;48.542;9.052;2022-10-04T18:55:32;96540.25;;;15.19;74.98
22582;BME280;47125;48.542;9.052;2022-10-04T19:05:40;96552.16;;;15.01;77.35
22582;BME280;47125;48.542;9.052;2022-10-04T19:15:56;96562.41;;;14.82;78.00
22582;BME280;47125;48.542;9.052;2022-10-04T19:26:02;96572.81;;;14.57;79.28
22582;BME280;47125;48.542;9.052;2022-10-04T19:36:31;96580.88;;;14.57;78.75
22582;BME280;47125;48.542;9.052;2022-10-04T19:46:41;96587.22;;;14.68;76.89
22582;BME280;47125;48.542;9.052;2022-10-04T19:56:45;96581.72;;;14.41;78.29
22582;BME280;47125;48.542;9.052;2022-10-04T20:06:52;96586.22;;;14.36;77.85
22582;BME280;47125;48.542;9.052;2022-10-04T20:17:01;96587.34;;;14.23;78.14
22582;BME280;47125;48.542;9.052;2022-10-04T20:27:05;96598.75;;;13.97;78.88
22582;BME280;47125;48.542;9.052;2022-10-04T20:37:09;96615.66;;;14.30;75.90
22582;BME280;47125;48.542;9.052;2022-10-04T20:47:17;96634.00;;;14.33;75.53
22582;BME280;47125;48.542;9.052;2022-10-04T20:57:21;96638.22;;;14.13;77.38
22582;BME280;47125;48.542;9.052;2022-10-04T21:07:25;96638.50;;;13.83;79.32
22582;BME280;47125;48.542;9.052;2022-10-04T21:17:35;96645.38;;;14.07;77.67
22582;BME280;47125;48.542;9.052;2022-10-04T21:27:39;96664.72;;;14.09;77.91
22582;BME280;47125;48.542;9.052;2022-10-04T21:37:43;96652.28;;;14.03;78.34
22582;BME280;47125;48.542;9.052;2022-10-04T21:47:47;96658.59;;;13.97;78.99
22582;BME280;47125;48.542;9.052;2022-10-04T21:57:49;96638.53;;;13.55;80.61
22582;BME280;47125;48.542;9.052;2022-10-04T22:07:53;96648.25;;;13.44;81.32
22582;BME280;47125;48.542;9.052;2022-10-04T22:17:56;96646.91;;;13.30;81.33
22582;BME280;47125;48.542;9.052;2022-10-04T22:27:59;96652.66;;;13.10;81.93
22582;BME280;47125;48.542;9.052;2022-10-04T22:38:03;96633.06;;;12.98;82.15
22582;BME280;47125;48.542;9.052;2022-10-04T22:48:10;96628.78;;;12.74;83.29
22582;BME280;47125;48.542;9.052;2022-10-04T22:58:13;96611.66;;;12.29;86.17
22582;BME280;47125;48.542;9.052;2022-10-04T23:08:17;96614.13;;;12.30;84.43
22582;BME280;47125;48.542;9.052;2022-10-04T23:18:19;96607.03;;;12.12;84.54
22582;BME280;47125;48.542;9.052;2022-10-04T23:28:23;96603.41;;;12.19;83.42
22582;BME280;47125;48.542;9.052;2022-10-04T23:38:26;96604.22;;;12.07;85.40
22582;BME280;47125;48.542;9.052;2022-10-04T23:48:31;96598.06;;;12.30;84.88
22582;BME280;47125;48.542;9.052;2022-10-04T23:58:35;96592.81;;;12.24;84.42
